RYR5482 LPPT-LEPA
Flight info
| Callsign | RYR5482 |
|---|---|
| Flight time | 1h 30m |
| Altitude | 38000 |
| Route | ORVED DCT UREDI DCT NVS/N0453F390 DCT NANDO DCT FENXE DCT MABUX DCT RETBA DCT MOPIR DCT LASPO/N0450F380 DCT ORVUS M871 GODOX |
| Aircraft | B738/M-SDE2E3FGHIRWXY/LB1 |
Departure
| Time | 2026-05-06 04:03 |
|---|---|
| Airport | Lisbon Humberto Delgado Airport (LPPT) |
Arrival
| Time | 2026-05-06 05:34 |
|---|---|
| Airport | Palma de Mallorca Airport (LEPA) |
| Time | Latitude | Longitude | Altitude | Speed | Heading |
|---|---|---|---|---|---|
| 2026-05-06 03:43 | 38.76527 | -9.13390 | 350 ft | 0 kts | 71° |
| 2026-05-06 03:53 | 38.76523 | -9.13403 | 350 ft | 4 kts | 70° |
| 2026-05-06 03:53 | 38.76510 | -9.13429 | 355 ft | 4 kts | 27° |
| 2026-05-06 03:54 | 38.76487 | -9.13433 | 347 ft | 3 kts | 343° |
| 2026-05-06 03:54 | 38.76479 | -9.13430 | 355 ft | 0 kts | 342° |
| 2026-05-06 03:57 | 38.76487 | -9.13433 | 347 ft | 4 kts | 342° |
| 2026-05-06 03:57 | 38.76543 | -9.13456 | 348 ft | 13 kts | 343° |
| 2026-05-06 03:57 | 38.76639 | -9.13512 | 349 ft | 17 kts | 302° |
| 2026-05-06 03:57 | 38.76623 | -9.13674 | 346 ft | 21 kts | 257° |
| 2026-05-06 03:58 | 38.76591 | -9.13864 | 346 ft | 22 kts | 258° |
| 2026-05-06 03:58 | 38.76560 | -9.14050 | 348 ft | 21 kts | 258° |
| 2026-05-06 03:58 | 38.76588 | -9.14224 | 348 ft | 20 kts | 290° |
| 2026-05-06 03:58 | 38.76602 | -9.14271 | 343 ft | 0 kts | 293° |
| 2026-05-06 04:02 | 38.76608 | -9.14290 | 344 ft | 6 kts | 293° |
| 2026-05-06 04:02 | 38.76647 | -9.14366 | 338 ft | 13 kts | 329° |
| 2026-05-06 04:02 | 38.76689 | -9.14363 | 340 ft | 0 kts | 20° |
| 2026-05-06 04:03 | 38.76709 | -9.14353 | 338 ft | 20 kts | 22° |
| 2026-05-06 04:03 | 38.77142 | -9.14121 | 351 ft | 112 kts | 22° |
| 2026-05-06 04:03 | 38.78094 | -9.13626 | 560 ft | 168 kts | 20° |
| 2026-05-06 04:03 | 38.79212 | -9.13000 | 1563 ft | 179 kts | 22° |
| 2026-05-06 04:04 | 38.80280 | -9.12342 | 3079 ft | 161 kts | 24° |
| 2026-05-06 04:04 | 38.81259 | -9.11701 | 4225 ft | 157 kts | 24° |
| 2026-05-06 04:04 | 38.82305 | -9.10974 | 4704 ft | 188 kts | 27° |
| 2026-05-06 04:04 | 38.83534 | -9.10065 | 4966 ft | 219 kts | 28° |
| 2026-05-06 04:05 | 38.84726 | -9.09174 | 5198 ft | 247 kts | 28° |
| 2026-05-06 04:05 | 38.86251 | -9.08028 | 5911 ft | 259 kts | 29° |
| 2026-05-06 04:05 | 38.87826 | -9.06841 | 6800 ft | 265 kts | 29° |
| 2026-05-06 04:05 | 38.89308 | -9.05384 | 7665 ft | 272 kts | 44° |
| 2026-05-06 04:06 | 38.90469 | -9.03434 | 8537 ft | 281 kts | 57° |
| 2026-05-06 04:06 | 38.91378 | -9.01177 | 9395 ft | 288 kts | 62° |
| 2026-05-06 04:06 | 38.92230 | -8.98813 | 10227 ft | 294 kts | 63° |
| 2026-05-06 04:06 | 38.93108 | -8.96344 | 10604 ft | 318 kts | 63° |
| 2026-05-06 04:07 | 38.94075 | -8.93652 | 10816 ft | 345 kts | 63° |
| 2026-05-06 04:07 | 38.95111 | -8.90801 | 11356 ft | 358 kts | 63° |
| 2026-05-06 04:07 | 38.96186 | -8.87870 | 12106 ft | 364 kts | 62° |
| 2026-05-06 04:07 | 38.97263 | -8.84949 | 12892 ft | 369 kts | 62° |
| 2026-05-06 04:08 | 38.98381 | -8.81932 | 13637 ft | 377 kts | 62° |
| 2026-05-06 04:08 | 38.99518 | -8.78868 | 14349 ft | 382 kts | 62° |
| 2026-05-06 04:08 | 39.00669 | -8.75767 | 15074 ft | 386 kts | 62° |
| 2026-05-06 04:08 | 39.01834 | -8.72623 | 15797 ft | 391 kts | 62° |
| 2026-05-06 04:09 | 39.03010 | -8.69447 | 16486 ft | 396 kts | 62° |
| 2026-05-06 04:09 | 39.04202 | -8.66229 | 17160 ft | 401 kts | 62° |
| 2026-05-06 04:09 | 39.05408 | -8.62968 | 17831 ft | 406 kts | 63° |
| 2026-05-06 04:09 | 39.06631 | -8.59656 | 18480 ft | 412 kts | 63° |
| 2026-05-06 04:10 | 39.07865 | -8.56312 | 19083 ft | 415 kts | 63° |
| 2026-05-06 04:10 | 39.09093 | -8.52979 | 19721 ft | 418 kts | 63° |
| 2026-05-06 04:10 | 39.10341 | -8.49590 | 20320 ft | 422 kts | 63° |
| 2026-05-06 04:10 | 39.11604 | -8.46155 | 20918 ft | 425 kts | 63° |
| 2026-05-06 04:11 | 39.12873 | -8.42696 | 21504 ft | 429 kts | 62° |
| 2026-05-06 04:11 | 39.14153 | -8.39208 | 22072 ft | 433 kts | 63° |
| 2026-05-06 04:11 | 39.15445 | -8.35679 | 22631 ft | 436 kts | 63° |
| 2026-05-06 04:11 | 39.16748 | -8.32118 | 23178 ft | 440 kts | 63° |
| 2026-05-06 04:12 | 39.18061 | -8.28527 | 23699 ft | 444 kts | 63° |
| 2026-05-06 04:12 | 39.19379 | -8.24913 | 24139 ft | 447 kts | 63° |
| 2026-05-06 04:12 | 39.20709 | -8.21266 | 24543 ft | 452 kts | 63° |
| 2026-05-06 04:12 | 39.22032 | -8.17633 | 24951 ft | 455 kts | 63° |
| 2026-05-06 04:13 | 39.23381 | -8.13920 | 25370 ft | 459 kts | 63° |
| 2026-05-06 04:13 | 39.24741 | -8.10175 | 25771 ft | 463 kts | 63° |
| 2026-05-06 04:13 | 39.26117 | -8.06381 | 26147 ft | 467 kts | 63° |
| 2026-05-06 04:13 | 39.27498 | -8.02572 | 26534 ft | 470 kts | 63° |
| 2026-05-06 04:14 | 39.28807 | -7.98681 | 26911 ft | 475 kts | 66° |
| 2026-05-06 04:14 | 39.29982 | -7.94681 | 27289 ft | 479 kts | 68° |
| 2026-05-06 04:14 | 39.31111 | -7.90608 | 27637 ft | 483 kts | 69° |
| 2026-05-06 04:14 | 39.32229 | -7.86545 | 27989 ft | 486 kts | 69° |
| 2026-05-06 04:15 | 39.33381 | -7.82416 | 28343 ft | 489 kts | 68° |
| 2026-05-06 04:15 | 39.34558 | -7.78268 | 28685 ft | 492 kts | 68° |
| 2026-05-06 04:15 | 39.35751 | -7.74103 | 28993 ft | 496 kts | 68° |
| 2026-05-06 04:15 | 39.36945 | -7.69947 | 29312 ft | 499 kts | 68° |
| 2026-05-06 04:16 | 39.38170 | -7.65670 | 29647 ft | 502 kts | 68° |
| 2026-05-06 04:16 | 39.39495 | -7.61541 | 29955 ft | 504 kts | 63° |
| 2026-05-06 04:16 | 39.41028 | -7.57442 | 30196 ft | 507 kts | 60° |
| 2026-05-06 04:16 | 39.42653 | -7.53378 | 30457 ft | 509 kts | 60° |
| 2026-05-06 04:17 | 39.44301 | -7.49320 | 30760 ft | 510 kts | 60° |
| 2026-05-06 04:17 | 39.45936 | -7.45255 | 31152 ft | 509 kts | 60° |
| 2026-05-06 04:17 | 39.47549 | -7.41173 | 31542 ft | 508 kts | 61° |
| 2026-05-06 04:17 | 39.49121 | -7.37134 | 31874 ft | 508 kts | 61° |
| 2026-05-06 04:18 | 39.50698 | -7.33034 | 32192 ft | 509 kts | 61° |
| 2026-05-06 04:18 | 39.52270 | -7.28919 | 32563 ft | 508 kts | 61° |
| 2026-05-06 04:18 | 39.53834 | -7.24812 | 32894 ft | 508 kts | 61° |
| 2026-05-06 04:18 | 39.55398 | -7.20701 | 33216 ft | 509 kts | 61° |
| 2026-05-06 04:19 | 39.56964 | -7.16581 | 33571 ft | 508 kts | 61° |
| 2026-05-06 04:19 | 39.58529 | -7.12463 | 33938 ft | 507 kts | 61° |
| 2026-05-06 04:19 | 39.60088 | -7.08358 | 34222 ft | 508 kts | 61° |
| 2026-05-06 04:19 | 39.61646 | -7.04251 | 34497 ft | 507 kts | 61° |
| 2026-05-06 04:20 | 39.63200 | -7.00149 | 34812 ft | 506 kts | 61° |
| 2026-05-06 04:20 | 39.64749 | -6.96056 | 35125 ft | 505 kts | 61° |
| 2026-05-06 04:20 | 39.66276 | -6.92012 | 35393 ft | 505 kts | 61° |
| 2026-05-06 04:20 | 39.67830 | -6.87895 | 35663 ft | 504 kts | 62° |
| 2026-05-06 04:21 | 39.69369 | -6.83809 | 35960 ft | 503 kts | 62° |
| 2026-05-06 04:21 | 39.70900 | -6.79740 | 36266 ft | 502 kts | 62° |
| 2026-05-06 04:21 | 39.72431 | -6.75665 | 36529 ft | 502 kts | 62° |
| 2026-05-06 04:21 | 39.73964 | -6.71581 | 36623 ft | 505 kts | 62° |
| 2026-05-06 04:22 | 39.77039 | -6.63371 | 36620 ft | 506 kts | 62° |
| 2026-05-06 04:23 | 39.81623 | -6.51082 | 36691 ft | 504 kts | 62° |
| 2026-05-06 04:23 | 39.83148 | -6.46984 | 36951 ft | 504 kts | 62° |
| 2026-05-06 04:23 | 39.84671 | -6.42886 | 37270 ft | 502 kts | 62° |
| 2026-05-06 04:23 | 39.86136 | -6.38820 | 37619 ft | 500 kts | 65° |
| 2026-05-06 04:24 | 39.87337 | -6.34577 | 37926 ft | 499 kts | 70° |
| 2026-05-06 04:24 | 39.89451 | -6.25907 | 38007 ft | 504 kts | 72° |
| 2026-05-06 04:25 | 39.91504 | -6.17193 | 37986 ft | 501 kts | 71° |
| 2026-05-06 04:25 | 39.93583 | -6.08563 | 37996 ft | 497 kts | 71° |
| 2026-05-06 04:26 | 39.95678 | -5.99994 | 38002 ft | 494 kts | 71° |
| 2026-05-06 04:26 | 39.97763 | -5.91469 | 38007 ft | 496 kts | 71° |
| 2026-05-06 04:27 | 39.99856 | -5.82874 | 38010 ft | 503 kts | 71° |
| 2026-05-06 04:27 | 40.01977 | -5.74120 | 37998 ft | 507 kts | 71° |
| 2026-05-06 04:28 | 40.04098 | -5.65323 | 38003 ft | 509 kts | 71° |
| 2026-05-06 04:28 | 40.06225 | -5.56474 | 37999 ft | 510 kts | 71° |
| 2026-05-06 04:29 | 40.08329 | -5.47684 | 38002 ft | 509 kts | 71° |
| 2026-05-06 04:29 | 40.10440 | -5.38832 | 38000 ft | 508 kts | 71° |
| 2026-05-06 04:30 | 40.12519 | -5.30083 | 38003 ft | 506 kts | 71° |
| 2026-05-06 04:30 | 40.14600 | -5.21293 | 38000 ft | 505 kts | 71° |
| 2026-05-06 04:31 | 40.16662 | -5.12549 | 38007 ft | 503 kts | 72° |
| 2026-05-06 04:31 | 40.18717 | -5.03804 | 38001 ft | 502 kts | 72° |
| 2026-05-06 04:32 | 40.20761 | -4.95071 | 38005 ft | 501 kts | 72° |
| 2026-05-06 04:32 | 40.22783 | -4.86395 | 37997 ft | 501 kts | 72° |
| 2026-05-06 04:33 | 40.24811 | -4.77665 | 38001 ft | 502 kts | 72° |
| 2026-05-06 04:33 | 40.26841 | -4.68894 | 37997 ft | 503 kts | 72° |
| 2026-05-06 04:34 | 40.28856 | -4.60150 | 37992 ft | 504 kts | 72° |
| 2026-05-06 04:34 | 40.30883 | -4.51318 | 37994 ft | 506 kts | 72° |
| 2026-05-06 04:35 | 40.32897 | -4.42512 | 37986 ft | 507 kts | 72° |
| 2026-05-06 04:35 | 40.34919 | -4.33640 | 37984 ft | 508 kts | 72° |
| 2026-05-06 04:36 | 40.36133 | -4.24510 | 37990 ft | 508 kts | 90° |
| 2026-05-06 04:36 | 40.35397 | -4.15342 | 37992 ft | 504 kts | 105° |
| 2026-05-06 04:37 | 40.33767 | -4.06390 | 37978 ft | 505 kts | 107° |
| 2026-05-06 04:37 | 40.32122 | -3.97487 | 37979 ft | 505 kts | 106° |
| 2026-05-06 04:38 | 40.30512 | -3.88522 | 37990 ft | 505 kts | 106° |
| 2026-05-06 04:38 | 40.28922 | -3.79541 | 38066 ft | 504 kts | 105° |
| 2026-05-06 04:39 | 40.27351 | -3.70677 | 37988 ft | 494 kts | 105° |
| 2026-05-06 04:39 | 40.25798 | -3.61982 | 38004 ft | 494 kts | 105° |
| 2026-05-06 04:40 | 40.24219 | -3.53200 | 37990 ft | 495 kts | 105° |
| 2026-05-06 04:40 | 40.22634 | -3.44423 | 37985 ft | 496 kts | 106° |
| 2026-05-06 04:41 | 40.21046 | -3.35667 | 37990 ft | 497 kts | 106° |
| 2026-05-06 04:41 | 40.19439 | -3.26848 | 37987 ft | 498 kts | 106° |
| 2026-05-06 04:42 | 40.17825 | -3.18027 | 37983 ft | 499 kts | 106° |
| 2026-05-06 04:42 | 40.16198 | -3.09175 | 37981 ft | 500 kts | 106° |
| 2026-05-06 04:43 | 40.14564 | -3.00332 | 37992 ft | 500 kts | 106° |
| 2026-05-06 04:43 | 40.12935 | -2.91553 | 37996 ft | 500 kts | 106° |
| 2026-05-06 04:44 | 40.11287 | -2.82714 | 37996 ft | 501 kts | 106° |
| 2026-05-06 04:44 | 40.09631 | -2.73872 | 37992 ft | 501 kts | 106° |
| 2026-05-06 04:45 | 40.07970 | -2.65039 | 37993 ft | 501 kts | 107° |
| 2026-05-06 04:45 | 40.06302 | -2.56212 | 37996 ft | 501 kts | 107° |
| 2026-05-06 04:46 | 40.04624 | -2.47371 | 37994 ft | 500 kts | 107° |
| 2026-05-06 04:46 | 40.02951 | -2.38597 | 38007 ft | 500 kts | 107° |
| 2026-05-06 04:47 | 40.01262 | -2.29771 | 38002 ft | 500 kts | 107° |
| 2026-05-06 04:47 | 39.99571 | -2.20981 | 38011 ft | 500 kts | 107° |
| 2026-05-06 04:48 | 39.97565 | -2.13969 | 38006 ft | 492 kts | 122° |
| 2026-05-06 04:48 | 39.93675 | -2.04934 | 38005 ft | 492 kts | 124° |
| 2026-05-06 04:49 | 39.90860 | -1.98484 | 38015 ft | 492 kts | 123° |
| 2026-05-06 04:49 | 39.86969 | -1.89408 | 38010 ft | 493 kts | 123° |
| 2026-05-06 04:50 | 39.84185 | -1.82870 | 38015 ft | 494 kts | 123° |
| 2026-05-06 04:50 | 39.80851 | -1.75058 | 38017 ft | 494 kts | 123° |
| 2026-05-06 04:51 | 39.77507 | -1.67250 | 38015 ft | 494 kts | 123° |
| 2026-05-06 04:51 | 39.74153 | -1.59441 | 38013 ft | 495 kts | 123° |
| 2026-05-06 04:52 | 39.70816 | -1.51692 | 38007 ft | 495 kts | 123° |
| 2026-05-06 04:52 | 39.67451 | -1.43904 | 38008 ft | 494 kts | 123° |
| 2026-05-06 04:53 | 39.64078 | -1.36113 | 38016 ft | 494 kts | 123° |
| 2026-05-06 04:53 | 39.60708 | -1.28347 | 38008 ft | 493 kts | 123° |
| 2026-05-06 04:54 | 39.57366 | -1.20659 | 38015 ft | 492 kts | 124° |
| 2026-05-06 04:54 | 39.54000 | -1.12938 | 38012 ft | 491 kts | 124° |
| 2026-05-06 04:55 | 39.50650 | -1.05237 | 38003 ft | 490 kts | 124° |
| 2026-05-06 04:55 | 39.47304 | -0.97551 | 38001 ft | 490 kts | 124° |
| 2026-05-06 04:56 | 39.43942 | -0.89853 | 37974 ft | 490 kts | 124° |
| 2026-05-06 04:56 | 39.40603 | -0.82213 | 37973 ft | 490 kts | 124° |
| 2026-05-06 04:57 | 39.37230 | -0.74563 | 37965 ft | 489 kts | 124° |
| 2026-05-06 04:57 | 39.33847 | -0.66915 | 37956 ft | 490 kts | 124° |
| 2026-05-06 04:58 | 39.30499 | -0.59223 | 37963 ft | 493 kts | 119° |
| 2026-05-06 04:58 | 39.29312 | -0.55105 | 37983 ft | 498 kts | 108° |
| 2026-05-06 04:58 | 39.28643 | -0.50695 | 37949 ft | 502 kts | 97° |
| 2026-05-06 04:59 | 39.28797 | -0.41667 | 37968 ft | 505 kts | 86° |
| 2026-05-06 04:59 | 39.29390 | -0.32638 | 37964 ft | 506 kts | 86° |
| 2026-05-06 05:00 | 39.29934 | -0.23549 | 37953 ft | 506 kts | 86° |
| 2026-05-06 05:00 | 39.30411 | -0.14475 | 37947 ft | 507 kts | 87° |
| 2026-05-06 05:01 | 39.30862 | -0.05444 | 37941 ft | 507 kts | 87° |
| 2026-05-06 05:01 | 39.31312 | 0.03638 | 37950 ft | 507 kts | 87° |
| 2026-05-06 05:01 | 39.31536 | 0.08194 | 37561 ft | 512 kts | 88° |
| 2026-05-06 05:02 | 39.31761 | 0.12795 | 36997 ft | 511 kts | 88° |
| 2026-05-06 05:02 | 39.31983 | 0.17360 | 36399 ft | 509 kts | 88° |
| 2026-05-06 05:02 | 39.32203 | 0.21918 | 35775 ft | 508 kts | 88° |
| 2026-05-06 05:02 | 39.32421 | 0.26475 | 35101 ft | 509 kts | 88° |
| 2026-05-06 05:03 | 39.32635 | 0.30991 | 34430 ft | 510 kts | 89° |
| 2026-05-06 05:03 | 39.32850 | 0.35574 | 33654 ft | 512 kts | 89° |
| 2026-05-06 05:03 | 39.33065 | 0.40173 | 32862 ft | 513 kts | 89° |
| 2026-05-06 05:03 | 39.33278 | 0.44788 | 32088 ft | 514 kts | 89° |
| 2026-05-06 05:04 | 39.33489 | 0.49398 | 31295 ft | 514 kts | 88° |
| 2026-05-06 05:04 | 39.33697 | 0.54015 | 30503 ft | 515 kts | 88° |
| 2026-05-06 05:04 | 39.33905 | 0.58640 | 29696 ft | 515 kts | 88° |
| 2026-05-06 05:04 | 39.34109 | 0.63234 | 29072 ft | 509 kts | 88° |
| 2026-05-06 05:05 | 39.34310 | 0.67769 | 28489 ft | 502 kts | 88° |
| 2026-05-06 05:05 | 39.34508 | 0.72256 | 27882 ft | 496 kts | 89° |
| 2026-05-06 05:05 | 39.34700 | 0.76688 | 27306 ft | 490 kts | 89° |
| 2026-05-06 05:05 | 39.34888 | 0.81061 | 26727 ft | 485 kts | 89° |
| 2026-05-06 05:06 | 39.35073 | 0.85386 | 26148 ft | 480 kts | 89° |
| 2026-05-06 05:06 | 39.35253 | 0.89668 | 25591 ft | 475 kts | 89° |
| 2026-05-06 05:06 | 39.35428 | 0.93860 | 25039 ft | 470 kts | 89° |
| 2026-05-06 05:06 | 39.35602 | 0.98060 | 24473 ft | 466 kts | 89° |
| 2026-05-06 05:07 | 39.35774 | 1.02230 | 23940 ft | 462 kts | 89° |
| 2026-05-06 05:07 | 39.35942 | 1.06365 | 23367 ft | 458 kts | 89° |
| 2026-05-06 05:07 | 39.36108 | 1.10459 | 22721 ft | 454 kts | 89° |
| 2026-05-06 05:07 | 39.36270 | 1.14511 | 22158 ft | 449 kts | 89° |
| 2026-05-06 05:08 | 39.36429 | 1.18516 | 21603 ft | 444 kts | 89° |
| 2026-05-06 05:08 | 39.36585 | 1.22478 | 21066 ft | 439 kts | 89° |
| 2026-05-06 05:08 | 39.36738 | 1.26400 | 20523 ft | 435 kts | 89° |
| 2026-05-06 05:08 | 39.36889 | 1.30287 | 19992 ft | 431 kts | 89° |
| 2026-05-06 05:09 | 39.37037 | 1.34149 | 19466 ft | 427 kts | 89° |
| 2026-05-06 05:09 | 39.37181 | 1.37919 | 18951 ft | 424 kts | 89° |
| 2026-05-06 05:09 | 39.37338 | 1.41721 | 18429 ft | 421 kts | 86° |
| 2026-05-06 05:09 | 39.37696 | 1.45480 | 17872 ft | 419 kts | 82° |
| 2026-05-06 05:10 | 39.38193 | 1.49182 | 17304 ft | 417 kts | 80° |
| 2026-05-06 05:10 | 39.38731 | 1.52855 | 16767 ft | 413 kts | 80° |
| 2026-05-06 05:10 | 39.39260 | 1.56490 | 16241 ft | 410 kts | 80° |
| 2026-05-06 05:10 | 39.39769 | 1.60107 | 15729 ft | 406 kts | 81° |
| 2026-05-06 05:11 | 39.40255 | 1.63693 | 15214 ft | 403 kts | 81° |
| 2026-05-06 05:11 | 39.40727 | 1.67255 | 14719 ft | 401 kts | 81° |
| 2026-05-06 05:11 | 39.41183 | 1.70757 | 14222 ft | 398 kts | 81° |
| 2026-05-06 05:11 | 39.41638 | 1.74278 | 13718 ft | 396 kts | 81° |
| 2026-05-06 05:12 | 39.42089 | 1.77784 | 13141 ft | 394 kts | 81° |
| 2026-05-06 05:12 | 39.42537 | 1.81272 | 12617 ft | 391 kts | 81° |
| 2026-05-06 05:12 | 39.42980 | 1.84722 | 12107 ft | 387 kts | 81° |
| 2026-05-06 05:12 | 39.43418 | 1.88144 | 11648 ft | 382 kts | 81° |
| 2026-05-06 05:13 | 39.43843 | 1.91470 | 11514 ft | 368 kts | 81° |
| 2026-05-06 05:13 | 39.44253 | 1.94681 | 11356 ft | 356 kts | 81° |
| 2026-05-06 05:13 | 39.44649 | 1.97795 | 11210 ft | 344 kts | 81° |
| 2026-05-06 05:13 | 39.45027 | 2.00775 | 11073 ft | 334 kts | 81° |
| 2026-05-06 05:14 | 39.45446 | 2.03692 | 10857 ft | 327 kts | 76° |
| 2026-05-06 05:14 | 39.46107 | 2.06492 | 10573 ft | 323 kts | 71° |
| 2026-05-06 05:14 | 39.46860 | 2.09224 | 10256 ft | 321 kts | 70° |
| 2026-05-06 05:14 | 39.47619 | 2.11924 | 10064 ft | 314 kts | 70° |
| 2026-05-06 05:15 | 39.48349 | 2.14557 | 9901 ft | 307 kts | 70° |
| 2026-05-06 05:15 | 39.49055 | 2.17156 | 9566 ft | 305 kts | 70° |
| 2026-05-06 05:15 | 39.49748 | 2.19749 | 9252 ft | 303 kts | 71° |
| 2026-05-06 05:15 | 39.50420 | 2.22284 | 8953 ft | 301 kts | 71° |
| 2026-05-06 05:16 | 39.51092 | 2.24838 | 8652 ft | 298 kts | 71° |
| 2026-05-06 05:16 | 39.51759 | 2.27378 | 8358 ft | 296 kts | 71° |
| 2026-05-06 05:16 | 39.52420 | 2.29906 | 8050 ft | 294 kts | 71° |
| 2026-05-06 05:16 | 39.53075 | 2.32409 | 7758 ft | 292 kts | 71° |
| 2026-05-06 05:17 | 39.53721 | 2.34884 | 7470 ft | 290 kts | 71° |
| 2026-05-06 05:17 | 39.54364 | 2.37353 | 7169 ft | 288 kts | 71° |
| 2026-05-06 05:17 | 39.55042 | 2.39780 | 6980 ft | 283 kts | 64° |
| 2026-05-06 05:17 | 39.56004 | 2.41921 | 6945 ft | 278 kts | 56° |
| 2026-05-06 05:18 | 39.57100 | 2.43966 | 6941 ft | 275 kts | 54° |
| 2026-05-06 05:18 | 39.58217 | 2.45988 | 6926 ft | 276 kts | 53° |
| 2026-05-06 05:18 | 39.59340 | 2.48029 | 6956 ft | 279 kts | 54° |
| 2026-05-06 05:18 | 39.60458 | 2.50078 | 6940 ft | 278 kts | 54° |
| 2026-05-06 05:19 | 39.61572 | 2.52136 | 6915 ft | 278 kts | 54° |
| 2026-05-06 05:19 | 39.62674 | 2.54187 | 6951 ft | 278 kts | 54° |
| 2026-05-06 05:19 | 39.63776 | 2.56256 | 6949 ft | 279 kts | 54° |
| 2026-05-06 05:19 | 39.64880 | 2.58336 | 6949 ft | 278 kts | 55° |
| 2026-05-06 05:20 | 39.65974 | 2.60398 | 6944 ft | 276 kts | 55° |
| 2026-05-06 05:20 | 39.67050 | 2.62427 | 6933 ft | 277 kts | 55° |
| 2026-05-06 05:20 | 39.68139 | 2.64488 | 6953 ft | 277 kts | 55° |
| 2026-05-06 05:20 | 39.69226 | 2.66549 | 6933 ft | 276 kts | 55° |
| 2026-05-06 05:21 | 39.70313 | 2.68609 | 6929 ft | 277 kts | 54° |
| 2026-05-06 05:21 | 39.71406 | 2.70684 | 6934 ft | 279 kts | 54° |
| 2026-05-06 05:21 | 39.72509 | 2.72767 | 6959 ft | 280 kts | 54° |
| 2026-05-06 05:21 | 39.73611 | 2.74867 | 6963 ft | 281 kts | 55° |
| 2026-05-06 05:22 | 39.74723 | 2.76972 | 6924 ft | 283 kts | 54° |
| 2026-05-06 05:22 | 39.75831 | 2.79086 | 6943 ft | 282 kts | 55° |
| 2026-05-06 05:22 | 39.76926 | 2.81177 | 6916 ft | 278 kts | 54° |
| 2026-05-06 05:22 | 39.78014 | 2.83242 | 6925 ft | 278 kts | 55° |
| 2026-05-06 05:23 | 39.79101 | 2.85315 | 6969 ft | 276 kts | 55° |
| 2026-05-06 05:23 | 39.80168 | 2.87363 | 6944 ft | 277 kts | 54° |
| 2026-05-06 05:23 | 39.82338 | 2.91503 | 6952 ft | 277 kts | 55° |
| 2026-05-06 05:24 | 39.83432 | 2.93589 | 6968 ft | 281 kts | 55° |
| 2026-05-06 05:24 | 39.84535 | 2.95701 | 6942 ft | 283 kts | 55° |
| 2026-05-06 05:24 | 39.85647 | 2.97830 | 6939 ft | 284 kts | 55° |
| 2026-05-06 05:24 | 39.86759 | 2.99959 | 6932 ft | 284 kts | 55° |
| 2026-05-06 05:25 | 39.87861 | 3.02093 | 6955 ft | 282 kts | 59° |
| 2026-05-06 05:25 | 39.88464 | 3.04505 | 6943 ft | 280 kts | 88° |
| 2026-05-06 05:25 | 39.88159 | 3.06942 | 6946 ft | 276 kts | 116° |
| 2026-05-06 05:25 | 39.87060 | 3.08969 | 6762 ft | 277 kts | 142° |
| 2026-05-06 05:26 | 39.85393 | 3.10149 | 6523 ft | 272 kts | 167° |
| 2026-05-06 05:26 | 39.83540 | 3.10372 | 6268 ft | 267 kts | 187° |
| 2026-05-06 05:26 | 39.81706 | 3.10103 | 6017 ft | 263 kts | 188° |
| 2026-05-06 05:26 | 39.79885 | 3.09862 | 5754 ft | 263 kts | 188° |
| 2026-05-06 05:27 | 39.78062 | 3.09636 | 5462 ft | 262 kts | 187° |
| 2026-05-06 05:27 | 39.76279 | 3.09417 | 5252 ft | 260 kts | 187° |
| 2026-05-06 05:27 | 39.74472 | 3.09194 | 4968 ft | 261 kts | 187° |
| 2026-05-06 05:27 | 39.72669 | 3.08969 | 4726 ft | 259 kts | 189° |
| 2026-05-06 05:28 | 39.71045 | 3.08095 | 4527 ft | 253 kts | 223° |
| 2026-05-06 05:28 | 39.69923 | 3.06367 | 4501 ft | 250 kts | 234° |
| 2026-05-06 05:28 | 39.68956 | 3.04536 | 4489 ft | 241 kts | 238° |
| 2026-05-06 05:28 | 39.68081 | 3.02725 | 4474 ft | 232 kts | 239° |
| 2026-05-06 05:29 | 39.67248 | 3.00963 | 4337 ft | 228 kts | 239° |
| 2026-05-06 05:29 | 39.66411 | 2.99190 | 4054 ft | 232 kts | 238° |
| 2026-05-06 05:29 | 39.65556 | 2.97388 | 3761 ft | 237 kts | 239° |
| 2026-05-06 05:29 | 39.64693 | 2.95551 | 3447 ft | 234 kts | 239° |
| 2026-05-06 05:30 | 39.63857 | 2.93786 | 3134 ft | 230 kts | 239° |
| 2026-05-06 05:30 | 39.63020 | 2.92018 | 2824 ft | 225 kts | 239° |
| 2026-05-06 05:30 | 39.62229 | 2.90336 | 2513 ft | 215 kts | 240° |
| 2026-05-06 05:30 | 39.61478 | 2.88734 | 2252 ft | 202 kts | 238° |
| 2026-05-06 05:31 | 39.60758 | 2.87229 | 1973 ft | 189 kts | 239° |
| 2026-05-06 05:31 | 39.60096 | 2.85826 | 1747 ft | 175 kts | 239° |
| 2026-05-06 05:31 | 39.59488 | 2.84536 | 1509 ft | 162 kts | 239° |
| 2026-05-06 05:31 | 39.58910 | 2.83314 | 1303 ft | 159 kts | 238° |
| 2026-05-06 05:32 | 39.58334 | 2.82117 | 1099 ft | 157 kts | 238° |
| 2026-05-06 05:32 | 39.57758 | 2.80895 | 927 ft | 161 kts | 240° |
| 2026-05-06 05:32 | 39.57170 | 2.79621 | 678 ft | 167 kts | 238° |
| 2026-05-06 05:32 | 39.56561 | 2.78328 | 437 ft | 166 kts | 238° |
| 2026-05-06 05:33 | 39.55958 | 2.77054 | 204 ft | 166 kts | 238° |
| 2026-05-06 05:33 | 39.55364 | 2.75787 | 27 ft | 161 kts | 238° |
| 2026-05-06 05:33 | 39.54827 | 2.74654 | 28 ft | 131 kts | 238° |
| 2026-05-06 05:33 | 39.54451 | 2.73868 | 29 ft | 71 kts | 239° |
| 2026-05-06 05:34 | 39.54290 | 2.73529 | 31 ft | 27 kts | 238° |
| 2026-05-06 05:34 | 39.54195 | 2.73329 | 34 ft | 25 kts | 238° |
| 2026-05-06 05:34 | 39.54152 | 2.73181 | 36 ft | 10 kts | 279° |
| 2026-05-06 05:34 | 39.54205 | 2.73125 | 35 ft | 10 kts | 333° |
| 2026-05-06 05:35 | 39.54268 | 2.73088 | 35 ft | 10 kts | 347° |
| 2026-05-06 05:35 | 39.54333 | 2.73162 | 34 ft | 17 kts | 57° |
| 2026-05-06 05:35 | 39.54405 | 2.73313 | 33 ft | 22 kts | 59° |
| 2026-05-06 05:35 | 39.54491 | 2.73498 | 32 ft | 24 kts | 59° |
| 2026-05-06 05:36 | 39.54576 | 2.73680 | 30 ft | 23 kts | 58° |
| 2026-05-06 05:36 | 39.54657 | 2.73850 | 30 ft | 22 kts | 58° |
| 2026-05-06 05:36 | 39.54768 | 2.73955 | 29 ft | 22 kts | 355° |
| 2026-05-06 05:36 | 39.54912 | 2.73943 | 28 ft | 21 kts | 334° |
| 2026-05-06 05:37 | 39.55036 | 2.73849 | 29 ft | 20 kts | 327° |
| 2026-05-06 05:37 | 39.55154 | 2.73751 | 24 ft | 20 kts | 326° |
| 2026-05-06 05:37 | 39.55145 | 2.73625 | 25 ft | 15 kts | 241° |
| 2026-05-06 05:37 | 39.55117 | 2.73566 | 24 ft | 0 kts | 236° |
| 2026-05-06 05:38 | 39.55041 | 2.73535 | 25 ft | 0 kts | 171° |
| 2026-05-06 05:38 | 39.55041 | 2.73534 | 25 ft | 0 kts | 171° |